THY6DF EKCH-LTFM
Flight info
| Callsign | THY6DF |
|---|---|
| Flight time | N/A |
| Altitude | 37000 |
| Route | SIMEG Z493 XELOL DCT INDIG DCT LENOV DCT DUFES DCT KENIN DCT RUTUV DCT BUVAK DCT RIXEN |
| Aircraft | A321/M-SDE3FGHIRWY/LB1 |
Departure
| Time | 2026-04-24 16:15 |
|---|---|
| Airport | Copenhagen Kastrup Airport (EKCH) |
Arrival
| Time | N/A |
|---|---|
| Airport | İstanbul Airport (LTFM) |
| Time | Latitude | Longitude | Altitude | Speed | Heading |
|---|---|---|---|---|---|
| 2026-04-24 15:42 | 55.62605 | 12.64892 | 17 ft | 0 kts | 91° |
| 2026-04-24 16:02 | 55.62605 | 12.64890 | 17 ft | 2 kts | 91° |
| 2026-04-24 16:02 | 55.62605 | 12.64849 | 17 ft | 2 kts | 91° |
| 2026-04-24 16:02 | 55.62608 | 12.64809 | 17 ft | 4 kts | 114° |
| 2026-04-24 16:02 | 55.62622 | 12.64779 | 17 ft | 4 kts | 174° |
| 2026-04-24 16:03 | 55.62626 | 12.64777 | 17 ft | 4 kts | 192° |
| 2026-04-24 16:03 | 55.62599 | 12.64770 | 17 ft | 4 kts | 182° |
| 2026-04-24 16:03 | 55.62589 | 12.64770 | 17 ft | 0 kts | 179° |
| 2026-04-24 16:07 | 55.62588 | 12.64770 | 17 ft | 1 kts | 179° |
| 2026-04-24 16:07 | 55.62571 | 12.64771 | 17 ft | 6 kts | 179° |
| 2026-04-24 16:07 | 55.62457 | 12.64777 | 17 ft | 9 kts | 176° |
| 2026-04-24 16:08 | 55.62398 | 12.64783 | 17 ft | 9 kts | 172° |
| 2026-04-24 16:08 | 55.62313 | 12.64968 | 18 ft | 11 kts | 120° |
| 2026-04-24 16:09 | 55.62212 | 12.65174 | 20 ft | 11 kts | 182° |
| 2026-04-24 16:09 | 55.62145 | 12.65107 | 17 ft | 12 kts | 212° |
| 2026-04-24 16:09 | 55.62097 | 12.65053 | 18 ft | 13 kts | 212° |
| 2026-04-24 16:09 | 55.61989 | 12.64929 | 18 ft | 16 kts | 213° |
| 2026-04-24 16:10 | 55.61676 | 12.64568 | 18 ft | 20 kts | 213° |
| 2026-04-24 16:11 | 55.61436 | 12.64293 | 17 ft | 22 kts | 213° |
| 2026-04-24 16:11 | 55.61308 | 12.64145 | 17 ft | 23 kts | 213° |
| 2026-04-24 16:11 | 55.61173 | 12.63989 | 19 ft | 24 kts | 213° |
| 2026-04-24 16:12 | 55.60892 | 12.63667 | 17 ft | 18 kts | 213° |
| 2026-04-24 16:12 | 55.60827 | 12.63592 | 17 ft | 12 kts | 213° |
| 2026-04-24 16:12 | 55.60640 | 12.63371 | 17 ft | 18 kts | 219° |
| 2026-04-24 16:13 | 55.60545 | 12.63224 | 18 ft | 17 kts | 220° |
| 2026-04-24 16:13 | 55.60410 | 12.63137 | 18 ft | 12 kts | 141° |
| 2026-04-24 16:14 | 55.60330 | 12.63321 | 19 ft | 5 kts | 83° |
| 2026-04-24 16:14 | 55.60353 | 12.63370 | 19 ft | 0 kts | 41° |
| 2026-04-24 16:14 | 55.60670 | 12.63859 | 20 ft | 97 kts | 41° |
| 2026-04-24 16:15 | 55.60855 | 12.64146 | 20 ft | 120 kts | 41° |
| 2026-04-24 16:15 | 55.63079 | 12.67597 | 1320 ft | 166 kts | 38° |
| 2026-04-24 16:16 | 55.65005 | 12.70566 | 1950 ft | 206 kts | 38° |
| 2026-04-24 16:16 | 55.65754 | 12.71702 | 2103 ft | 222 kts | 37° |
| 2026-04-24 16:17 | 55.69380 | 12.78283 | 3822 ft | 269 kts | 66° |
| 2026-04-24 16:17 | 55.69281 | 12.84919 | 5441 ft | 284 kts | 115° |
| 2026-04-24 16:18 | 55.66272 | 12.89389 | 6942 ft | 294 kts | 161° |
| 2026-04-24 16:18 | 55.62309 | 12.91302 | 8455 ft | 298 kts | 182° |
| 2026-04-24 16:18 | 55.60262 | 12.90833 | 9198 ft | 297 kts | 200° |
| 2026-04-24 16:19 | 55.56878 | 12.86904 | 10556 ft | 299 kts | 230° |
| 2026-04-24 16:19 | 55.55188 | 12.84559 | 10740 ft | 329 kts | 211° |
| 2026-04-24 16:20 | 55.50401 | 12.84545 | 11450 ft | 375 kts | 155° |
| 2026-04-24 16:20 | 55.46469 | 12.90773 | 12715 ft | 387 kts | 130° |
| 2026-04-24 16:20 | 55.44791 | 12.94506 | 13357 ft | 391 kts | 127° |
| 2026-04-24 16:21 | 55.41492 | 13.02286 | 14631 ft | 401 kts | 127° |
| 2026-04-24 16:21 | 55.39775 | 13.06179 | 15241 ft | 405 kts | 129° |
| 2026-04-24 16:21 | 55.37993 | 13.10053 | 15860 ft | 408 kts | 130° |
| 2026-04-24 16:22 | 55.36189 | 13.13856 | 16441 ft | 412 kts | 131° |
| 2026-04-24 16:22 | 55.32437 | 13.21609 | 17610 ft | 420 kts | 131° |
| 2026-04-24 16:22 | 55.30532 | 13.25542 | 18169 ft | 424 kts | 131° |
| 2026-04-24 16:23 | 55.28610 | 13.29525 | 18722 ft | 428 kts | 131° |
| 2026-04-24 16:23 | 55.26682 | 13.33533 | 19264 ft | 432 kts | 131° |
| 2026-04-24 16:23 | 55.24731 | 13.37593 | 19786 ft | 436 kts | 131° |
| 2026-04-24 16:24 | 55.20783 | 13.45799 | 20838 ft | 444 kts | 131° |
| 2026-04-24 16:24 | 55.18803 | 13.49900 | 21330 ft | 448 kts | 131° |
| 2026-04-24 16:24 | 55.16784 | 13.54072 | 21820 ft | 451 kts | 131° |
| 2026-04-24 16:24 | 55.14740 | 13.58294 | 22291 ft | 454 kts | 131° |
| 2026-04-24 16:25 | 55.12684 | 13.62528 | 22732 ft | 458 kts | 131° |
| 2026-04-24 16:25 | 55.10612 | 13.66781 | 23166 ft | 461 kts | 131° |
| 2026-04-24 16:25 | 55.08519 | 13.71069 | 23605 ft | 464 kts | 131° |
| 2026-04-24 16:26 | 55.04330 | 13.79643 | 24433 ft | 470 kts | 131° |
| 2026-04-24 16:26 | 55.02202 | 13.83990 | 24821 ft | 473 kts | 131° |
| 2026-04-24 16:26 | 54.97890 | 13.92773 | 25579 ft | 479 kts | 131° |
| 2026-04-24 16:27 | 54.95716 | 13.97193 | 25946 ft | 482 kts | 132° |
| 2026-04-24 16:27 | 54.93531 | 14.01625 | 26300 ft | 485 kts | 132° |
| 2026-04-24 16:27 | 54.91322 | 14.06097 | 26674 ft | 487 kts | 132° |
| 2026-04-24 16:27 | 54.89110 | 14.10567 | 27034 ft | 490 kts | 132° |
| 2026-04-24 16:28 | 54.86873 | 14.15069 | 27368 ft | 493 kts | 132° |
| 2026-04-24 16:28 | 54.84648 | 14.19538 | 27694 ft | 496 kts | 132° |
| 2026-04-24 16:28 | 54.80112 | 14.28626 | 28321 ft | 501 kts | 132° |
| 2026-04-24 16:29 | 54.77714 | 14.33038 | 28617 ft | 502 kts | 140° |
| 2026-04-24 16:29 | 54.74972 | 14.36758 | 28906 ft | 501 kts | 149° |
| 2026-04-24 16:29 | 54.69088 | 14.43367 | 29493 ft | 506 kts | 150° |
| 2026-04-24 16:30 | 54.63157 | 14.50053 | 30129 ft | 510 kts | 150° |
| 2026-04-24 16:30 | 54.60185 | 14.53404 | 30537 ft | 510 kts | 150° |
| 2026-04-24 16:30 | 54.57211 | 14.56749 | 30924 ft | 509 kts | 150° |
| 2026-04-24 16:31 | 54.54286 | 14.60032 | 31293 ft | 509 kts | 150° |
| 2026-04-24 16:31 | 54.51322 | 14.63354 | 31658 ft | 508 kts | 150° |
| 2026-04-24 16:31 | 54.48352 | 14.66677 | 32042 ft | 508 kts | 150° |
| 2026-04-24 16:31 | 54.45374 | 14.70002 | 32400 ft | 508 kts | 150° |
| 2026-04-24 16:32 | 54.42410 | 14.73301 | 32757 ft | 508 kts | 150° |
| 2026-04-24 16:32 | 54.39444 | 14.76590 | 33098 ft | 507 kts | 150° |
| 2026-04-24 16:32 | 54.36487 | 14.79863 | 33440 ft | 507 kts | 150° |
| 2026-04-24 16:32 | 54.33516 | 14.83150 | 33696 ft | 507 kts | 150° |
| 2026-04-24 16:33 | 54.30548 | 14.86429 | 33943 ft | 507 kts | 151° |
| 2026-04-24 16:33 | 54.27614 | 14.89809 | 34195 ft | 509 kts | 145° |
| 2026-04-24 16:33 | 54.24887 | 14.93683 | 34434 ft | 510 kts | 142° |
| 2026-04-24 16:33 | 54.22191 | 14.97628 | 34693 ft | 509 kts | 142° |
| 2026-04-24 16:34 | 54.19497 | 15.01562 | 34930 ft | 509 kts | 142° |
| 2026-04-24 16:34 | 54.16831 | 15.05446 | 35014 ft | 509 kts | 142° |
| 2026-04-24 16:34 | 54.11450 | 15.13252 | 35016 ft | 507 kts | 142° |
| 2026-04-24 16:35 | 54.06054 | 15.21031 | 35015 ft | 507 kts | 142° |
| 2026-04-24 16:35 | 54.00661 | 15.28777 | 35018 ft | 507 kts | 142° |
| 2026-04-24 16:36 | 53.95273 | 15.36509 | 35027 ft | 506 kts | 141° |
| 2026-04-24 16:36 | 53.89879 | 15.44216 | 35041 ft | 506 kts | 141° |
| 2026-04-24 16:37 | 53.87216 | 15.48014 | 35342 ft | 506 kts | 141° |
| 2026-04-24 16:37 | 53.84524 | 15.51845 | 35679 ft | 505 kts | 141° |
| 2026-04-24 16:37 | 53.81827 | 15.55673 | 36011 ft | 504 kts | 141° |
| 2026-04-24 16:37 | 53.79138 | 15.59475 | 36315 ft | 503 kts | 141° |
| 2026-04-24 16:38 | 53.76450 | 15.63271 | 36578 ft | 503 kts | 141° |
| 2026-04-24 16:38 | 53.73763 | 15.67060 | 36865 ft | 502 kts | 141° |
| 2026-04-24 16:38 | 53.71077 | 15.70834 | 37005 ft | 501 kts | 141° |
| 2026-04-24 16:38 | 53.68411 | 15.74576 | 37032 ft | 498 kts | 141° |
| 2026-04-24 16:39 | 53.63102 | 15.82038 | 37026 ft | 494 kts | 141° |
| 2026-04-24 16:39 | 53.57823 | 15.89424 | 37026 ft | 494 kts | 141° |
| 2026-04-24 16:40 | 53.52537 | 15.96801 | 37025 ft | 494 kts | 141° |
| 2026-04-24 16:40 | 53.47280 | 16.04116 | 37028 ft | 494 kts | 141° |
| 2026-04-24 16:41 | 53.41980 | 16.11467 | 37031 ft | 494 kts | 142° |
| 2026-04-24 16:41 | 53.36678 | 16.18808 | 37037 ft | 495 kts | 141° |
| 2026-04-24 16:42 | 53.31350 | 16.26126 | 37041 ft | 495 kts | 142° |
| 2026-04-24 16:42 | 53.26018 | 16.33427 | 37048 ft | 495 kts | 142° |
| 2026-04-24 16:43 | 53.20687 | 16.40726 | 37052 ft | 496 kts | 141° |
| 2026-04-24 16:43 | 53.15342 | 16.48004 | 37051 ft | 496 kts | 142° |
| 2026-04-24 16:44 | 53.09992 | 16.55275 | 37054 ft | 496 kts | 141° |
| 2026-04-24 16:44 | 53.04670 | 16.62477 | 37051 ft | 496 kts | 142° |
| 2026-04-24 16:45 | 52.99299 | 16.69707 | 37052 ft | 496 kts | 142° |
| 2026-04-24 16:45 | 52.93935 | 16.76923 | 37044 ft | 496 kts | 142° |
| 2026-04-24 16:46 | 52.88567 | 16.84124 | 37046 ft | 496 kts | 142° |
| 2026-04-24 16:46 | 52.83195 | 16.91304 | 37032 ft | 496 kts | 142° |
| 2026-04-24 16:47 | 52.77853 | 16.98435 | 37029 ft | 496 kts | 142° |
| 2026-04-24 16:47 | 52.72476 | 17.05577 | 37028 ft | 496 kts | 142° |
| 2026-04-24 16:48 | 52.67083 | 17.12695 | 37029 ft | 496 kts | 142° |
| 2026-04-24 16:48 | 52.61697 | 17.19796 | 37028 ft | 496 kts | 142° |
| 2026-04-24 16:49 | 52.56302 | 17.26898 | 37028 ft | 497 kts | 142° |
| 2026-04-24 16:49 | 52.50901 | 17.33984 | 37030 ft | 497 kts | 142° |
| 2026-04-24 16:50 | 52.45517 | 17.41017 | 37035 ft | 498 kts | 142° |
| 2026-04-24 16:50 | 52.40088 | 17.48065 | 37033 ft | 498 kts | 142° |
| 2026-04-24 16:51 | 52.34646 | 17.55115 | 37033 ft | 498 kts | 142° |
| 2026-04-24 16:51 | 52.29208 | 17.62150 | 37027 ft | 498 kts | 142° |
| 2026-04-24 16:52 | 52.23764 | 17.69177 | 37030 ft | 499 kts | 142° |
| 2026-04-24 16:52 | 52.18350 | 17.76146 | 37031 ft | 498 kts | 142° |
| 2026-04-24 16:53 | 52.12890 | 17.83131 | 37024 ft | 499 kts | 142° |
| 2026-04-24 16:53 | 52.07428 | 17.90100 | 37028 ft | 500 kts | 142° |
| 2026-04-24 16:54 | 52.01951 | 17.97058 | 37029 ft | 500 kts | 142° |
| 2026-04-24 16:54 | 51.96391 | 18.04046 | 37019 ft | 510 kts | 143° |
| 2026-04-24 16:55 | 51.90683 | 18.10966 | 37017 ft | 514 kts | 144° |
| 2026-04-24 16:55 | 51.84930 | 18.17830 | 37017 ft | 514 kts | 144° |
| 2026-04-24 16:56 | 51.79215 | 18.24671 | 37005 ft | 514 kts | 143° |
| 2026-04-24 16:56 | 51.73459 | 18.31590 | 37012 ft | 514 kts | 143° |
| 2026-04-24 16:57 | 51.67714 | 18.38479 | 37031 ft | 514 kts | 143° |
| 2026-04-24 16:57 | 51.61952 | 18.45348 | 37037 ft | 515 kts | 143° |
| 2026-04-24 16:58 | 51.56192 | 18.52189 | 37041 ft | 514 kts | 143° |
| 2026-04-24 16:58 | 51.50452 | 18.59004 | 37047 ft | 514 kts | 143° |
| 2026-04-24 16:59 | 51.44690 | 18.65810 | 37046 ft | 514 kts | 143° |
| 2026-04-24 17:00 | 51.36073 | 18.75942 | 37048 ft | 513 kts | 143° |
| 2026-04-24 17:00 | 51.27429 | 18.86045 | 37041 ft | 512 kts | 143° |
| 2026-04-24 17:01 | 51.18778 | 18.96128 | 37033 ft | 513 kts | 143° |
| 2026-04-24 17:02 | 51.10168 | 19.06106 | 37042 ft | 512 kts | 143° |
| 2026-04-24 17:02 | 51.04410 | 19.12760 | 37043 ft | 511 kts | 143° |
| 2026-04-24 17:03 | 50.95795 | 19.22669 | 37046 ft | 510 kts | 143° |
| 2026-04-24 17:04 | 50.90973 | 19.28197 | 37049 ft | 511 kts | 143° |
| 2026-04-24 17:04 | 50.82330 | 19.38073 | 37044 ft | 510 kts | 143° |
| 2026-04-24 17:05 | 50.76607 | 19.44590 | 37044 ft | 510 kts | 143° |
| 2026-04-24 17:06 | 50.67955 | 19.54382 | 37033 ft | 510 kts | 143° |
| 2026-04-24 17:06 | 50.59286 | 19.64162 | 37048 ft | 510 kts | 143° |
| 2026-04-24 17:07 | 50.53542 | 19.70633 | 37048 ft | 510 kts | 143° |
| 2026-04-24 17:08 | 50.41972 | 19.83544 | 37040 ft | 509 kts | 143° |
| 2026-04-24 17:08 | 50.36204 | 19.89963 | 37041 ft | 508 kts | 143° |
| 2026-04-24 17:09 | 50.24701 | 20.02717 | 37035 ft | 508 kts | 143° |
| 2026-04-24 17:10 | 50.13173 | 20.15431 | 37029 ft | 507 kts | 143° |
| 2026-04-24 17:12 | 49.90143 | 20.40569 | 37017 ft | 506 kts | 143° |